Terminal Aerodrome Forecast
Issued by NWS

Home | Current Version | Previous Version | Text Only | Print | Product List | Glossary On
Versions: 1 2 3 4 5 6 7 8 9 10 11 12 13 14 15 16 17 18 19 20 21 22 23 24 25 26 27 28 29 30
000
FTUS43 KGLD 112348
TAFMCK
TAF
KMCK 112348Z 1200/1224 35014G25KT P6SM SCT200
     FM120300 33008KT P6SM FEW200
     FM120800 27007KT P6SM SKC
     FM122100 29009KT P6SM SKC=

USA.gov is the U.S. government's official web portal to all federal, state and local government web resources and services.